sensor_id;sensor_type;location;lat;lon;timestamp;P1;durP1;ratioP1;P2;durP2;ratioP2
24034;SDS011;12242;50.952;4.678;2023-02-03T00:01:30;9.35;;;1.83;;
24034;SDS011;12242;50.952;4.678;2023-02-03T00:03:57;9.00;;;1.83;;
24034;SDS011;12242;50.952;4.678;2023-02-03T00:06:27;5.80;;;1.75;;
24034;SDS011;12242;50.952;4.678;2023-02-03T00:08:57;8.50;;;1.92;;
24034;SDS011;12242;50.952;4.678;2023-02-03T00:11:30;4.95;;;1.60;;
24034;SDS011;12242;50.952;4.678;2023-02-03T00:13:58;7.63;;;1.88;;
24034;SDS011;12242;50.952;4.678;2023-02-03T00:16:25;12.18;;;1.90;;
24034;SDS011;12242;50.952;4.678;2023-02-03T00:18:57;9.32;;;1.95;;
24034;SDS011;12242;50.952;4.678;2023-02-03T00:21:28;11.27;;;1.77;;
24034;SDS011;12242;50.952;4.678;2023-02-03T00:23:56;9.50;;;1.77;;
24034;SDS011;12242;50.952;4.678;2023-02-03T00:26:25;7.63;;;1.83;;
24034;SDS011;12242;50.952;4.678;2023-02-03T00:28:57;7.88;;;1.95;;
24034;SDS011;12242;50.952;4.678;2023-02-03T00:31:27;7.90;;;1.77;;
24034;SDS011;12242;50.952;4.678;2023-02-03T00:33:57;7.22;;;1.67;;
24034;SDS011;12242;50.952;4.678;2023-02-03T00:36:24;6.07;;;1.77;;
24034;SDS011;12242;50.952;4.678;2023-02-03T00:38:55;6.43;;;1.90;;
24034;SDS011;12242;50.952;4.678;2023-02-03T00:41:22;9.50;;;1.67;;
24034;SDS011;12242;50.952;4.678;2023-02-03T00:43:54;9.75;;;1.90;;
24034;SDS011;12242;50.952;4.678;2023-02-03T00:46:23;6.88;;;1.80;;
24034;SDS011;12242;50.952;4.678;2023-02-03T00:48:51;8.63;;;1.55;;
24034;SDS011;12242;50.952;4.678;2023-02-03T00:51:18;8.10;;;1.65;;
24034;SDS011;12242;50.952;4.678;2023-02-03T00:53:47;11.60;;;1.83;;
24034;SDS011;12242;50.952;4.678;2023-02-03T00:56:17;8.60;;;1.55;;
24034;SDS011;12242;50.952;4.678;2023-02-03T00:58:44;10.00;;;1.70;;
24034;SDS011;12242;50.952;4.678;2023-02-03T01:01:15;7.43;;;1.40;;
24034;SDS011;12242;50.952;4.678;2023-02-03T01:03:42;5.68;;;1.52;;
24034;SDS011;12242;50.952;4.678;2023-02-03T01:08:40;5.90;;;1.50;;
24034;SDS011;12242;50.952;4.678;2023-02-03T01:11:09;10.60;;;1.50;;
24034;SDS011;12242;50.952;4.678;2023-02-03T01:13:43;6.30;;;1.67;;
24034;SDS011;12242;50.952;4.678;2023-02-03T01:16:11;6.35;;;1.48;;
24034;SDS011;12242;50.952;4.678;2023-02-03T01:18:43;6.78;;;1.50;;
24034;SDS011;12242;50.952;4.678;2023-02-03T01:21:13;10.85;;;1.90;;
24034;SDS011;12242;50.952;4.678;2023-02-03T01:23:47;6.72;;;1.42;;
24034;SDS011;12242;50.952;4.678;2023-02-03T01:26:16;6.95;;;1.83;;
24034;SDS011;12242;50.952;4.678;2023-02-03T01:28:55;6.57;;;1.15;;
24034;SDS011;12242;50.952;4.678;2023-02-03T01:31:25;6.57;;;1.45;;
24034;SDS011;12242;50.952;4.678;2023-02-03T01:33:54;10.32;;;1.50;;
24034;SDS011;12242;50.952;4.678;2023-02-03T01:36:23;6.25;;;1.50;;
24034;SDS011;12242;50.952;4.678;2023-02-03T01:38:52;3.38;;;1.00;;
24034;SDS011;12242;50.952;4.678;2023-02-03T01:41:23;3.90;;;1.05;;
24034;SDS011;12242;50.952;4.678;2023-02-03T01:43:53;3.83;;;1.25;;
24034;SDS011;12242;50.952;4.678;2023-02-03T01:49:11;7.43;;;1.10;;
24034;SDS011;12242;50.952;4.678;2023-02-03T01:51:43;10.70;;;1.50;;
24034;SDS011;12242;50.952;4.678;2023-02-03T01:54:12;5.45;;;1.08;;
24034;SDS011;12242;50.952;4.678;2023-02-03T01:56:44;5.45;;;1.15;;
24034;SDS011;12242;50.952;4.678;2023-02-03T01:59:17;6.15;;;1.15;;
24034;SDS011;12242;50.952;4.678;2023-02-03T02:01:48;7.25;;;1.25;;
24034;SDS011;12242;50.952;4.678;2023-02-03T02:04:17;11.18;;;1.40;;
24034;SDS011;12242;50.952;4.678;2023-02-03T02:06:45;8.85;;;1.20;;
24034;SDS011;12242;50.952;4.678;2023-02-03T02:09:16;6.93;;;1.35;;
24034;SDS011;12242;50.952;4.678;2023-02-03T02:11:46;4.05;;;0.70;;
24034;SDS011;12242;50.952;4.678;2023-02-03T02:14:13;2.45;;;1.00;;
24034;SDS011;12242;50.952;4.678;2023-02-03T02:22:13;6.85;;;1.45;;
24034;SDS011;12242;50.952;4.678;2023-02-03T02:25:10;9.27;;;1.23;;
24034;SDS011;12242;50.952;4.678;2023-02-03T02:31:06;7.82;;;1.23;;
24034;SDS011;12242;50.952;4.678;2023-02-03T02:36:30;8.82;;;1.17;;
24034;SDS011;12242;50.952;4.678;2023-02-03T02:39:22;5.90;;;1.23;;
24034;SDS011;12242;50.952;4.678;2023-02-03T02:42:18;7.55;;;1.15;;
24034;SDS011;12242;50.952;4.678;2023-02-03T02:45:03;8.00;;;1.33;;
24034;SDS011;12242;50.952;4.678;2023-02-03T02:47:44;6.75;;;1.08;;
24034;SDS011;12242;50.952;4.678;2023-02-03T02:52:51;10.70;;;0.95;;
24034;SDS011;12242;50.952;4.678;2023-02-03T02:55:21;5.72;;;1.10;;
24034;SDS011;12242;50.952;4.678;2023-02-03T02:57:51;3.08;;;0.80;;
24034;SDS011;12242;50.952;4.678;2023-02-03T03:00:22;4.47;;;1.20;;
24034;SDS011;12242;50.952;4.678;2023-02-03T03:02:49;9.48;;;0.90;;
24034;SDS011;12242;50.952;4.678;2023-02-03T03:05:19;9.75;;;1.20;;
24034;SDS011;12242;50.952;4.678;2023-02-03T03:07:54;4.18;;;0.90;;
24034;SDS011;12242;50.952;4.678;2023-02-03T03:10:29;7.32;;;1.20;;
24034;SDS011;12242;50.952;4.678;2023-02-03T03:13:04;4.47;;;1.17;;
24034;SDS011;12242;50.952;4.678;2023-02-03T03:15:36;7.57;;;0.73;;
24034;SDS011;12242;50.952;4.678;2023-02-03T03:18:13;5.05;;;0.98;;
24034;SDS011;12242;50.952;4.678;2023-02-03T03:20:44;8.82;;;1.15;;
24034;SDS011;12242;50.952;4.678;2023-02-03T03:23:35;4.82;;;0.90;;
24034;SDS011;12242;50.952;4.678;2023-02-03T03:26:27;9.73;;;0.90;;
24034;SDS011;12242;50.952;4.678;2023-02-03T03:31:51;5.90;;;0.95;;
24034;SDS011;12242;50.952;4.678;2023-02-03T03:34:21;8.75;;;0.90;;
24034;SDS011;12242;50.952;4.678;2023-02-03T03:36:54;5.53;;;0.88;;
24034;SDS011;12242;50.952;4.678;2023-02-03T03:39:55;3.50;;;0.70;;
24034;SDS011;12242;50.952;4.678;2023-02-03T03:42:40;3.35;;;0.90;;
24034;SDS011;12242;50.952;4.678;2023-02-03T03:45:33;4.60;;;0.60;;
24034;SDS011;12242;50.952;4.678;2023-02-03T03:48:29;5.53;;;1.10;;
24034;SDS011;12242;50.952;4.678;2023-02-03T03:52:00;3.45;;;0.70;;
24034;SDS011;12242;50.952;4.678;2023-02-03T03:54:14;6.25;;;0.95;;
24034;SDS011;12242;50.952;4.678;2023-02-03T04:01:48;4.32;;;0.98;;
24034;SDS011;12242;50.952;4.678;2023-02-03T04:04:19;5.22;;;1.10;;
24034;SDS011;12242;50.952;4.678;2023-02-03T04:06:48;2.95;;;0.80;;
24034;SDS011;12242;50.952;4.678;2023-02-03T04:09:18;4.32;;;0.70;;
24034;SDS011;12242;50.952;4.678;2023-02-03T04:11:45;6.25;;;0.98;;
24034;SDS011;12242;50.952;4.678;2023-02-03T04:14:38;5.50;;;0.73;;
24034;SDS011;12242;50.952;4.678;2023-02-03T04:17:08;6.10;;;0.70;;
24034;SDS011;12242;50.952;4.678;2023-02-03T04:19:38;3.13;;;0.63;;
24034;SDS011;12242;50.952;4.678;2023-02-03T04:22:07;3.22;;;0.70;;
24034;SDS011;12242;50.952;4.678;2023-02-03T04:24:35;6.93;;;0.82;;
24034;SDS011;12242;50.952;4.678;2023-02-03T04:27:02;2.33;;;0.68;;
24034;SDS011;12242;50.952;4.678;2023-02-03T04:29:31;2.90;;;0.68;;
24034;SDS011;12242;50.952;4.678;2023-02-03T04:32:04;6.00;;;0.95;;
24034;SDS011;12242;50.952;4.678;2023-02-03T04:34:31;4.03;;;0.77;;
24034;SDS011;12242;50.952;4.678;2023-02-03T04:37:01;6.88;;;0.73;;
24034;SDS011;12242;50.952;4.678;2023-02-03T04:39:28;3.22;;;0.77;;
24034;SDS011;12242;50.952;4.678;2023-02-03T04:41:55;8.65;;;0.65;;
24034;SDS011;12242;50.952;4.678;2023-02-03T04:44:22;3.65;;;0.85;;
24034;SDS011;12242;50.952;4.678;2023-02-03T04:46:50;4.68;;;0.50;;
24034;SDS011;12242;50.952;4.678;2023-02-03T04:49:17;5.28;;;1.00;;
24034;SDS011;12242;50.952;4.678;2023-02-03T04:51:44;3.47;;;0.60;;
24034;SDS011;12242;50.952;4.678;2023-02-03T04:54:15;5.03;;;0.90;;
24034;SDS011;12242;50.952;4.678;2023-02-03T04:56:44;8.20;;;0.88;;
24034;SDS011;12242;50.952;4.678;2023-02-03T04:59:11;5.28;;;0.60;;
24034;SDS011;12242;50.952;4.678;2023-02-03T05:01:39;6.28;;;0.50;;
24034;SDS011;12242;50.952;4.678;2023-02-03T05:04:06;2.38;;;0.52;;
24034;SDS011;12242;50.952;4.678;2023-02-03T05:06:36;3.42;;;0.73;;
24034;SDS011;12242;50.952;4.678;2023-02-03T05:09:03;4.30;;;0.70;;
24034;SDS011;12242;50.952;4.678;2023-02-03T05:11:30;5.82;;;0.82;;
24034;SDS011;12242;50.952;4.678;2023-02-03T05:14:00;3.75;;;0.60;;
24034;SDS011;12242;50.952;4.678;2023-02-03T05:16:28;4.90;;;0.73;;
24034;SDS011;12242;50.952;4.678;2023-02-03T05:18:55;4.20;;;0.70;;
24034;SDS011;12242;50.952;4.678;2023-02-03T05:21:22;3.05;;;0.60;;
24034;SDS011;12242;50.952;4.678;2023-02-03T05:23:52;4.57;;;0.60;;
24034;SDS011;12242;50.952;4.678;2023-02-03T05:26:22;5.85;;;0.68;;
24034;SDS011;12242;50.952;4.678;2023-02-03T05:28:49;6.85;;;0.65;;
24034;SDS011;12242;50.952;4.678;2023-02-03T05:31:22;2.43;;;0.67;;
24034;SDS011;12242;50.952;4.678;2023-02-03T05:33:49;1.48;;;0.43;;
24034;SDS011;12242;50.952;4.678;2023-02-03T05:36:16;6.10;;;0.70;;
24034;SDS011;12242;50.952;4.678;2023-02-03T05:38:44;5.15;;;0.85;;
24034;SDS011;12242;50.952;4.678;2023-02-03T05:41:11;4.88;;;0.70;;
24034;SDS011;12242;50.952;4.678;2023-02-03T05:43:57;8.48;;;0.80;;
24034;SDS011;12242;50.952;4.678;2023-02-03T05:46:29;6.35;;;1.30;;
24034;SDS011;12242;50.952;4.678;2023-02-03T05:49:01;8.85;;;3.28;;
24034;SDS011;12242;50.952;4.678;2023-02-03T05:51:28;3.50;;;1.70;;
24034;SDS011;12242;50.952;4.678;2023-02-03T05:53:58;7.63;;;1.40;;
24034;SDS011;12242;50.952;4.678;2023-02-03T05:56:25;4.28;;;0.95;;
24034;SDS011;12242;50.952;4.678;2023-02-03T05:58:52;6.18;;;0.88;;
24034;SDS011;12242;50.952;4.678;2023-02-03T06:01:20;3.63;;;0.90;;
24034;SDS011;12242;50.952;4.678;2023-02-03T06:03:47;5.00;;;1.27;;
24034;SDS011;12242;50.952;4.678;2023-02-03T06:06:15;6.20;;;0.82;;
24034;SDS011;12242;50.952;4.678;2023-02-03T06:08:43;4.90;;;0.75;;
24034;SDS011;12242;50.952;4.678;2023-02-03T06:11:11;4.03;;;0.70;;
24034;SDS011;12242;50.952;4.678;2023-02-03T06:13:40;4.35;;;0.63;;
24034;SDS011;12242;50.952;4.678;2023-02-03T06:16:08;1.80;;;0.68;;
24034;SDS011;12242;50.952;4.678;2023-02-03T06:18:38;4.90;;;0.68;;
24034;SDS011;12242;50.952;4.678;2023-02-03T06:21:10;6.82;;;0.60;;
24034;SDS011;12242;50.952;4.678;2023-02-03T06:23:37;4.65;;;0.68;;
24034;SDS011;12242;50.952;4.678;2023-02-03T06:26:04;2.95;;;0.70;;
24034;SDS011;12242;50.952;4.678;2023-02-03T06:28:33;1.92;;;0.45;;
24034;SDS011;12242;50.952;4.678;2023-02-03T06:31:01;2.33;;;0.50;;
24034;SDS011;12242;50.952;4.678;2023-02-03T06:33:28;2.50;;;0.40;;
24034;SDS011;12242;50.952;4.678;2023-02-03T06:35:56;2.28;;;0.40;;
24034;SDS011;12242;50.952;4.678;2023-02-03T06:38:23;5.63;;;0.60;;
24034;SDS011;12242;50.952;4.678;2023-02-03T06:40:51;5.25;;;0.50;;
24034;SDS011;12242;50.952;4.678;2023-02-03T06:43:18;2.90;;;0.63;;
24034;SDS011;12242;50.952;4.678;2023-02-03T06:45:46;4.53;;;0.55;;
24034;SDS011;12242;50.952;4.678;2023-02-03T06:48:18;3.17;;;0.70;;
24034;SDS011;12242;50.952;4.678;2023-02-03T06:50:48;4.38;;;0.80;;
24034;SDS011;12242;50.952;4.678;2023-02-03T06:53:15;4.03;;;0.65;;
24034;SDS011;12242;50.952;4.678;2023-02-03T06:55:46;4.68;;;0.80;;
24034;SDS011;12242;50.952;4.678;2023-02-03T06:58:13;2.35;;;0.57;;
24034;SDS011;12242;50.952;4.678;2023-02-03T07:00:41;4.38;;;0.57;;
24034;SDS011;12242;50.952;4.678;2023-02-03T07:03:11;6.00;;;0.60;;
24034;SDS011;12242;50.952;4.678;2023-02-03T07:05:40;1.45;;;0.43;;
24034;SDS011;12242;50.952;4.678;2023-02-03T07:08:08;3.25;;;0.75;;
24034;SDS011;12242;50.952;4.678;2023-02-03T07:10:35;4.95;;;0.57;;
24034;SDS011;12242;50.952;4.678;2023-02-03T07:13:05;5.18;;;0.95;;
24034;SDS011;12242;50.952;4.678;2023-02-03T07:15:33;3.35;;;0.57;;
24034;SDS011;12242;50.952;4.678;2023-02-03T07:18:03;3.47;;;0.47;;
24034;SDS011;12242;50.952;4.678;2023-02-03T07:20:35;3.08;;;0.60;;
24034;SDS011;12242;50.952;4.678;2023-02-03T07:23:04;5.15;;;0.73;;
24034;SDS011;12242;50.952;4.678;2023-02-03T07:25:34;9.50;;;0.95;;
24034;SDS011;12242;50.952;4.678;2023-02-03T07:28:01;3.05;;;0.73;;
24034;SDS011;12242;50.952;4.678;2023-02-03T07:30:29;3.20;;;0.60;;
24034;SDS011;12242;50.952;4.678;2023-02-03T07:32:56;5.80;;;0.70;;
24034;SDS011;12242;50.952;4.678;2023-02-03T07:35:24;3.75;;;0.80;;
24034;SDS011;12242;50.952;4.678;2023-02-03T07:37:55;2.45;;;0.50;;
24034;SDS011;12242;50.952;4.678;2023-02-03T07:40:22;5.18;;;0.70;;
24034;SDS011;12242;50.952;4.678;2023-02-03T07:42:49;3.42;;;0.57;;
24034;SDS011;12242;50.952;4.678;2023-02-03T07:45:21;4.07;;;0.60;;
24034;SDS011;12242;50.952;4.678;2023-02-03T07:47:52;4.07;;;0.73;;
24034;SDS011;12242;50.952;4.678;2023-02-03T07:50:22;9.75;;;0.80;;
24034;SDS011;12242;50.952;4.678;2023-02-03T07:52:49;3.15;;;0.80;;
24034;SDS011;12242;50.952;4.678;2023-02-03T07:55:21;4.28;;;0.77;;
24034;SDS011;12242;50.952;4.678;2023-02-03T07:57:54;3.10;;;0.75;;
24034;SDS011;12242;50.952;4.678;2023-02-03T08:00:28;1.92;;;0.55;;
24034;SDS011;12242;50.952;4.678;2023-02-03T08:02:58;6.93;;;0.90;;
24034;SDS011;12242;50.952;4.678;2023-02-03T08:05:28;2.45;;;0.55;;
24034;SDS011;12242;50.952;4.678;2023-02-03T08:07:56;3.70;;;0.50;;
24034;SDS011;12242;50.952;4.678;2023-02-03T08:10:28;7.30;;;0.70;;
24034;SDS011;12242;50.952;4.678;2023-02-03T08:12:55;6.60;;;1.02;;
24034;SDS011;12242;50.952;4.678;2023-02-03T08:15:23;2.35;;;0.60;;
24034;SDS011;12242;50.952;4.678;2023-02-03T08:17:50;5.75;;;0.70;;
24034;SDS011;12242;50.952;4.678;2023-02-03T08:20:20;3.63;;;0.70;;
24034;SDS011;12242;50.952;4.678;2023-02-03T08:22:47;2.30;;;0.60;;
24034;SDS011;12242;50.952;4.678;2023-02-03T08:25:20;5.13;;;0.65;;
24034;SDS011;12242;50.952;4.678;2023-02-03T08:27:51;5.13;;;0.75;;
24034;SDS011;12242;50.952;4.678;2023-02-03T08:30:19;7.53;;;0.85;;
24034;SDS011;12242;50.952;4.678;2023-02-03T08:32:46;4.03;;;0.70;;
24034;SDS011;12242;50.952;4.678;2023-02-03T08:35:13;3.85;;;0.60;;
24034;SDS011;12242;50.952;4.678;2023-02-03T08:37:44;8.05;;;0.70;;
24034;SDS011;12242;50.952;4.678;2023-02-03T08:40:13;5.38;;;0.82;;
24034;SDS011;12242;50.952;4.678;2023-02-03T08:42:43;3.63;;;0.63;;
24034;SDS011;12242;50.952;4.678;2023-02-03T08:45:10;3.30;;;0.60;;
24034;SDS011;12242;50.952;4.678;2023-02-03T08:47:43;1.67;;;0.40;;
24034;SDS011;12242;50.952;4.678;2023-02-03T08:50:12;5.72;;;0.60;;
24034;SDS011;12242;50.952;4.678;2023-02-03T08:52:42;2.38;;;0.60;;
24034;SDS011;12242;50.952;4.678;2023-02-03T08:55:11;5.25;;;0.80;;
24034;SDS011;12242;50.952;4.678;2023-02-03T08:57:39;2.55;;;0.40;;
24034;SDS011;12242;50.952;4.678;2023-02-03T09:00:13;5.65;;;0.80;;
24034;SDS011;12242;50.952;4.678;2023-02-03T09:02:44;3.58;;;0.70;;
24034;SDS011;12242;50.952;4.678;2023-02-03T09:05:13;3.17;;;0.60;;
24034;SDS011;12242;50.952;4.678;2023-02-03T09:07:44;1.70;;;0.60;;
24034;SDS011;12242;50.952;4.678;2023-02-03T09:10:11;4.35;;;0.70;;
24034;SDS011;12242;50.952;4.678;2023-02-03T09:12:41;3.13;;;0.60;;
24034;SDS011;12242;50.952;4.678;2023-02-03T09:15:10;5.60;;;1.10;;
24034;SDS011;12242;50.952;4.678;2023-02-03T09:17:37;1.88;;;0.60;;
24034;SDS011;12242;50.952;4.678;2023-02-03T09:20:05;2.28;;;0.63;;
24034;SDS011;12242;50.952;4.678;2023-02-03T09:22:33;4.13;;;0.60;;
24034;SDS011;12242;50.952;4.678;2023-02-03T09:25:00;6.93;;;1.00;;
24034;SDS011;12242;50.952;4.678;2023-02-03T09:27:27;5.20;;;1.00;;
24034;SDS011;12242;50.952;4.678;2023-02-03T09:29:57;3.13;;;0.70;;
24034;SDS011;12242;50.952;4.678;2023-02-03T09:32:26;3.05;;;0.70;;
24034;SDS011;12242;50.952;4.678;2023-02-03T09:34:54;5.53;;;0.90;;
24034;SDS011;12242;50.952;4.678;2023-02-03T09:37:21;6.22;;;0.90;;
24034;SDS011;12242;50.952;4.678;2023-02-03T09:39:48;3.10;;;0.77;;
24034;SDS011;12242;50.952;4.678;2023-02-03T09:42:35;3.70;;;1.00;;
24034;SDS011;12242;50.952;4.678;2023-02-03T09:45:24;3.55;;;1.20;;
24034;SDS011;12242;50.952;4.678;2023-02-03T09:47:54;4.85;;;0.70;;
24034;SDS011;12242;50.952;4.678;2023-02-03T09:50:44;5.60;;;0.95;;
24034;SDS011;12242;50.952;4.678;2023-02-03T09:53:27;3.75;;;0.90;;
24034;SDS011;12242;50.952;4.678;2023-02-03T09:55:58;5.40;;;1.02;;
24034;SDS011;12242;50.952;4.678;2023-02-03T09:58:27;4.80;;;1.27;;
24034;SDS011;12242;50.952;4.678;2023-02-03T10:01:02;4.47;;;0.98;;
24034;SDS011;12242;50.952;4.678;2023-02-03T10:06:18;4.38;;;1.10;;
24034;SDS011;12242;50.952;4.678;2023-02-03T10:17:40;3.17;;;1.17;;
24034;SDS011;12242;50.952;4.678;2023-02-03T10:20:15;2.42;;;1.13;;
24034;SDS011;12242;50.952;4.678;2023-02-03T10:22:49;4.10;;;1.05;;
24034;SDS011;12242;50.952;4.678;2023-02-03T10:25:40;3.50;;;1.30;;
24034;SDS011;12242;50.952;4.678;2023-02-03T10:28:26;8.02;;;1.50;;
24034;SDS011;12242;50.952;4.678;2023-02-03T10:31:19;4.30;;;1.10;;
24034;SDS011;12242;50.952;4.678;2023-02-03T10:33:57;3.42;;;1.10;;
24034;SDS011;12242;50.952;4.678;2023-02-03T10:36:30;4.50;;;1.13;;
24034;SDS011;12242;50.952;4.678;2023-02-03T10:39:20;7.07;;;1.02;;
24034;SDS011;12242;50.952;4.678;2023-02-03T10:42:05;4.97;;;1.13;;
24034;SDS011;12242;50.952;4.678;2023-02-03T10:44:38;7.22;;;1.40;;
24034;SDS011;12242;50.952;4.678;2023-02-03T10:47:19;6.53;;;1.58;;
24034;SDS011;12242;50.952;4.678;2023-02-03T10:49:56;3.28;;;1.33;;
24034;SDS011;12242;50.952;4.678;2023-02-03T10:52:25;6.22;;;1.65;;
24034;SDS011;12242;50.952;4.678;2023-02-03T10:57:26;4.55;;;1.38;;
24034;SDS011;12242;50.952;4.678;2023-02-03T11:00:05;2.80;;;1.20;;
24034;SDS011;12242;50.952;4.678;2023-02-03T11:02:42;4.57;;;1.60;;
24034;SDS011;12242;50.952;4.678;2023-02-03T11:07:42;6.50;;;1.75;;
24034;SDS011;12242;50.952;4.678;2023-02-03T11:13:22;7.15;;;1.60;;
24034;SDS011;12242;50.952;4.678;2023-02-03T11:20:53;6.82;;;1.88;;
24034;SDS011;12242;50.952;4.678;2023-02-03T11:23:20;4.78;;;1.50;;
24034;SDS011;12242;50.952;4.678;2023-02-03T11:25:49;9.23;;;1.70;;
24034;SDS011;12242;50.952;4.678;2023-02-03T11:28:21;9.43;;;1.55;;
24034;SDS011;12242;50.952;4.678;2023-02-03T11:30:54;7.10;;;1.52;;
24034;SDS011;12242;50.952;4.678;2023-02-03T11:33:23;3.90;;;1.63;;
24034;SDS011;12242;50.952;4.678;2023-02-03T11:35:57;5.80;;;1.70;;
24034;SDS011;12242;50.952;4.678;2023-02-03T11:38:27;4.72;;;2.08;;
24034;SDS011;12242;50.952;4.678;2023-02-03T11:40:59;5.70;;;1.77;;
24034;SDS011;12242;50.952;4.678;2023-02-03T11:43:27;4.15;;;1.60;;
24034;SDS011;12242;50.952;4.678;2023-02-03T11:45:59;5.30;;;1.70;;
24034;SDS011;12242;50.952;4.678;2023-02-03T11:48:31;4.32;;;1.88;;
24034;SDS011;12242;50.952;4.678;2023-02-03T11:54:01;7.95;;;2.15;;
24034;SDS011;12242;50.952;4.678;2023-02-03T11:56:53;6.55;;;2.10;;
24034;SDS011;12242;50.952;4.678;2023-02-03T12:08:31;9.82;;;2.03;;
24034;SDS011;12242;50.952;4.678;2023-02-03T12:11:32;4.50;;;1.80;;
24034;SDS011;12242;50.952;4.678;2023-02-03T12:27:38;6.85;;;1.77;;
24034;SDS011;12242;50.952;4.678;2023-02-03T12:30:27;8.95;;;1.80;;
24034;SDS011;12242;50.952;4.678;2023-02-03T12:33:05;3.72;;;1.67;;
24034;SDS011;12242;50.952;4.678;2023-02-03T12:35:49;4.32;;;1.30;;
24034;SDS011;12242;50.952;4.678;2023-02-03T12:38:27;4.45;;;1.50;;
24034;SDS011;12242;50.952;4.678;2023-02-03T12:41:53;9.82;;;1.80;;
24034;SDS011;12242;50.952;4.678;2023-02-03T12:44:04;5.35;;;1.60;;
24034;SDS011;12242;50.952;4.678;2023-02-03T12:46:43;3.78;;;1.77;;
24034;SDS011;12242;50.952;4.678;2023-02-03T12:52:22;3.40;;;1.50;;
24034;SDS011;12242;50.952;4.678;2023-02-03T12:54:57;5.38;;;1.73;;
24034;SDS011;12242;50.952;4.678;2023-02-03T13:03:07;4.40;;;1.40;;
24034;SDS011;12242;50.952;4.678;2023-02-03T13:05:48;6.00;;;1.70;;
24034;SDS011;12242;50.952;4.678;2023-02-03T13:08:36;3.47;;;1.15;;
24034;SDS011;12242;50.952;4.678;2023-02-03T13:11:12;5.85;;;1.70;;
24034;SDS011;12242;50.952;4.678;2023-02-03T13:14:11;5.95;;;1.50;;
24034;SDS011;12242;50.952;4.678;2023-02-03T13:16:50;3.97;;;1.20;;
24034;SDS011;12242;50.952;4.678;2023-02-03T13:21:52;4.10;;;1.17;;
24034;SDS011;12242;50.952;4.678;2023-02-03T13:24:22;2.47;;;1.10;;
24034;SDS011;12242;50.952;4.678;2023-02-03T13:26:57;6.35;;;1.70;;
24034;SDS011;12242;50.952;4.678;2023-02-03T13:41:21;6.82;;;1.38;;
24034;SDS011;12242;50.952;4.678;2023-02-03T13:44:16;5.60;;;1.45;;
24034;SDS011;12242;50.952;4.678;2023-02-03T13:46:50;2.13;;;1.00;;
24034;SDS011;12242;50.952;4.678;2023-02-03T13:49:22;3.55;;;1.50;;
24034;SDS011;12242;50.952;4.678;2023-02-03T13:51:57;4.68;;;1.20;;
24034;SDS011;12242;50.952;4.678;2023-02-03T13:54:33;3.55;;;1.10;;
24034;SDS011;12242;50.952;4.678;2023-02-03T13:57:20;3.25;;;0.88;;
24034;SDS011;12242;50.952;4.678;2023-02-03T13:59:56;3.97;;;1.08;;
24034;SDS011;12242;50.952;4.678;2023-02-03T14:04:53;2.20;;;1.00;;
24034;SDS011;12242;50.952;4.678;2023-02-03T14:25:41;4.00;;;1.15;;
24034;SDS011;12242;50.952;4.678;2023-02-03T14:28:59;3.40;;;1.10;;
24034;SDS011;12242;50.952;4.678;2023-02-03T14:31:12;3.40;;;1.10;;
24034;SDS011;12242;50.952;4.678;2023-02-03T14:33:53;6.03;;;1.15;;
24034;SDS011;12242;50.952;4.678;2023-02-03T14:42:00;6.68;;;1.40;;
24034;SDS011;12242;50.952;4.678;2023-02-03T14:58:44;2.72;;;1.08;;
24034;SDS011;12242;50.952;4.678;2023-02-03T15:01:22;3.45;;;1.02;;
24034;SDS011;12242;50.952;4.678;2023-02-03T15:04:19;5.57;;;1.40;;
24034;SDS011;12242;50.952;4.678;2023-02-03T15:06:47;4.00;;;1.35;;
24034;SDS011;12242;50.952;4.678;2023-02-03T15:09:33;4.05;;;1.15;;
24034;SDS011;12242;50.952;4.678;2023-02-03T15:12:15;5.10;;;1.60;;
24034;SDS011;12242;50.952;4.678;2023-02-03T15:14:43;7.47;;;1.95;;
24034;SDS011;12242;50.952;4.678;2023-02-03T15:17:11;5.18;;;1.75;;
24034;SDS011;12242;50.952;4.678;2023-02-03T15:19:48;7.68;;;1.50;;
24034;SDS011;12242;50.952;4.678;2023-02-03T15:22:23;6.63;;;1.48;;
24034;SDS011;12242;50.952;4.678;2023-02-03T15:24:57;4.13;;;1.27;;
24034;SDS011;12242;50.952;4.678;2023-02-03T15:27:30;6.57;;;1.75;;
24034;SDS011;12242;50.952;4.678;2023-02-03T15:29:58;6.90;;;1.70;;
24034;SDS011;12242;50.952;4.678;2023-02-03T15:32:47;4.68;;;1.58;;
24034;SDS011;12242;50.952;4.678;2023-02-03T15:35:33;5.95;;;1.35;;
24034;SDS011;12242;50.952;4.678;2023-02-03T15:38:04;6.43;;;1.38;;
24034;SDS011;12242;50.952;4.678;2023-02-03T15:40:42;11.85;;;1.63;;
24034;SDS011;12242;50.952;4.678;2023-02-03T15:48:48;6.90;;;2.35;;
24034;SDS011;12242;50.952;4.678;2023-02-03T15:51:23;9.98;;;2.00;;
24034;SDS011;12242;50.952;4.678;2023-02-03T15:53:58;6.22;;;2.03;;
24034;SDS011;12242;50.952;4.678;2023-02-03T15:56:43;3.47;;;1.38;;
24034;SDS011;12242;50.952;4.678;2023-02-03T15:59:28;6.25;;;1.90;;
24034;SDS011;12242;50.952;4.678;2023-02-03T16:02:01;6.78;;;1.55;;
24034;SDS011;12242;50.952;4.678;2023-02-03T16:04:38;3.22;;;1.48;;
24034;SDS011;12242;50.952;4.678;2023-02-03T16:07:27;8.55;;;1.38;;
24034;SDS011;12242;50.952;4.678;2023-02-03T16:09:56;6.10;;;1.42;;
24034;SDS011;12242;50.952;4.678;2023-02-03T16:12:27;6.82;;;1.55;;
24034;SDS011;12242;50.952;4.678;2023-02-03T16:14:55;3.03;;;1.10;;
24034;SDS011;12242;50.952;4.678;2023-02-03T16:17:33;5.82;;;1.42;;
24034;SDS011;12242;50.952;4.678;2023-02-03T16:28:41;7.88;;;1.63;;
24034;SDS011;12242;50.952;4.678;2023-02-03T16:31:27;7.40;;;1.98;;
24034;SDS011;12242;50.952;4.678;2023-02-03T16:34:14;8.10;;;2.90;;
24034;SDS011;12242;50.952;4.678;2023-02-03T16:37:12;6.32;;;1.95;;
24034;SDS011;12242;50.952;4.678;2023-02-03T16:40:06;6.97;;;1.65;;
24034;SDS011;12242;50.952;4.678;2023-02-03T16:42:53;6.32;;;1.83;;
24034;SDS011;12242;50.952;4.678;2023-02-03T16:45:39;6.07;;;1.83;;
24034;SDS011;12242;50.952;4.678;2023-02-03T16:48:25;4.03;;;1.55;;
24034;SDS011;12242;50.952;4.678;2023-02-03T16:51:12;5.28;;;1.52;;
24034;SDS011;12242;50.952;4.678;2023-02-03T16:53:46;7.20;;;2.28;;
24034;SDS011;12242;50.952;4.678;2023-02-03T16:56:14;5.13;;;1.83;;
24034;SDS011;12242;50.952;4.678;2023-02-03T16:58:46;4.90;;;1.95;;
24034;SDS011;12242;50.952;4.678;2023-02-03T17:01:13;8.48;;;2.50;;
24034;SDS011;12242;50.952;4.678;2023-02-03T17:03:43;7.32;;;1.60;;
24034;SDS011;12242;50.952;4.678;2023-02-03T17:06:16;6.97;;;2.50;;
24034;SDS011;12242;50.952;4.678;2023-02-03T17:08:43;8.73;;;2.25;;
24034;SDS011;12242;50.952;4.678;2023-02-03T17:11:14;11.65;;;2.67;;
24034;SDS011;12242;50.952;4.678;2023-02-03T17:13:46;8.10;;;2.58;;
24034;SDS011;12242;50.952;4.678;2023-02-03T17:16:18;9.88;;;2.88;;
24034;SDS011;12242;50.952;4.678;2023-02-03T17:18:48;7.63;;;2.60;;
24034;SDS011;12242;50.952;4.678;2023-02-03T17:21:18;5.20;;;2.10;;
24034;SDS011;12242;50.952;4.678;2023-02-03T17:23:50;7.20;;;1.80;;
24034;SDS011;12242;50.952;4.678;2023-02-03T17:26:17;7.05;;;2.65;;
24034;SDS011;12242;50.952;4.678;2023-02-03T17:28:49;5.18;;;2.00;;
24034;SDS011;12242;50.952;4.678;2023-02-03T17:31:18;4.95;;;2.30;;
24034;SDS011;12242;50.952;4.678;2023-02-03T17:33:51;5.70;;;1.90;;
24034;SDS011;12242;50.952;4.678;2023-02-03T17:36:21;9.10;;;2.38;;
24034;SDS011;12242;50.952;4.678;2023-02-03T17:38:53;6.28;;;2.10;;
24034;SDS011;12242;50.952;4.678;2023-02-03T17:41:40;5.55;;;1.80;;
24034;SDS011;12242;50.952;4.678;2023-02-03T17:44:25;9.43;;;2.80;;
24034;SDS011;12242;50.952;4.678;2023-02-03T17:47:10;8.98;;;2.58;;
24034;SDS011;12242;50.952;4.678;2023-02-03T17:49:55;12.48;;;2.70;;
24034;SDS011;12242;50.952;4.678;2023-02-03T17:52:39;8.57;;;2.60;;
24034;SDS011;12242;50.952;4.678;2023-02-03T17:55:24;9.65;;;3.13;;
24034;SDS011;12242;50.952;4.678;2023-02-03T17:57:54;8.52;;;2.42;;
24034;SDS011;12242;50.952;4.678;2023-02-03T18:00:21;5.63;;;2.45;;